Time;durP1;ratioP1;P1;durP2;ratioP2;P2;SDS_P1;SDS_P2;PMS_P1;PMS_P2;Temp;Humidity;BMP_temperature;BMP_pressure;BME280_temperature;BME280_humidity;BME280_pressure;Samples;Min_cycle;Max_cycle;Signal;HPM_P1;HPM_P2
2022/07/01 00:01:55;;;;;;;10.25;6.47;;;;;;;24.54;63.00;99523.53;4461206;32;34024;-81
2022/07/01 00:04:26;;;;;;;14.13;7.85;;;;;;;24.64;62.84;99526.91;4454948;32;34827;-83
2022/07/01 00:07:11;;;;;;;10.85;7.72;;;;;;;24.48;63.43;99527.13;4464789;32;33568;-82
2022/07/01 00:09:39;;;;;;;9.88;7.70;;;;;;;24.49;63.54;99528.87;4460412;32;32851;-80
2022/07/01 00:12:07;;;;;;;13.68;7.72;;;;;;;24.66;63.05;99530.41;4459000;32;33944;-84
2022/07/01 00:14:35;;;;;;;15.05;7.87;;;;;;;24.48;63.49;99532.41;4451207;32;34714;-82
2022/07/01 00:17:03;;;;;;;10.73;7.50;;;;;;;24.32;64.20;99531.78;4448332;32;34474;-82
2022/07/01 00:19:31;;;;;;;28.20;8.85;;;;;;;24.20;64.60;99531.97;4456999;32;32993;-80
2022/07/01 00:21:58;;;;;;;9.45;6.45;;;;;;;25.05;61.08;99527.94;4461670;32;33832;-82
2022/07/01 00:24:27;;;;;;;12.80;7.37;;;;;;;24.61;62.36;99519.00;4458300;32;34040;-82
2022/07/01 00:26:54;;;;;;;10.23;7.53;;;;;;;24.38;63.39;99514.94;4458925;32;33201;-84
2022/07/01 00:29:21;;;;;;;11.27;6.87;;;;;;;24.21;63.98;99516.97;4441425;32;32921;-86
2022/07/01 00:31:49;;;;;;;11.63;7.60;;;;;;;24.21;63.83;99516.97;4459840;32;34072;-85
2022/07/01 00:34:17;;;;;;;13.10;7.72;;;;;;;24.24;64.01;99527.50;4460368;32;34342;-82
2022/07/01 00:36:44;;;;;;;12.73;7.50;;;;;;;24.02;64.67;99522.53;4444363;32;33445;-84
2022/07/01 00:39:12;;;;;;;14.30;6.80;;;;;;;24.09;64.60;99520.69;4461187;32;32838;-82
2022/07/01 00:41:39;;;;;;;11.55;7.10;;;;;;;24.17;64.36;99525.88;4458555;32;32648;-84
2022/07/01 00:44:18;;;;;;;11.15;7.37;;;;;;;24.05;64.87;99527.81;4459962;32;34553;-82
2022/07/01 00:46:49;;;;;;;10.70;8.13;;;;;;;24.25;64.12;99523.97;4467253;32;33787;-84
2022/07/01 00:49:17;;;;;;;12.75;7.18;;;;;;;24.27;64.07;99522.19;4448846;32;33132;-82
2022/07/01 00:51:44;;;;;;;11.30;7.20;;;;;;;24.02;65.04;99527.84;4452366;32;32554;-84
2022/07/01 00:54:12;;;;;;;13.93;7.37;;;;;;;23.82;65.80;99525.47;4446017;32;34480;-82
2022/07/01 00:56:40;;;;;;;9.95;7.35;;;;;;;23.93;65.21;99523.56;4450098;32;33384;-82
2022/07/01 00:59:07;;;;;;;12.23;7.40;;;;;;;24.06;64.71;99516.31;4459030;32;33182;-83
2022/07/01 01:01:35;;;;;;;10.90;6.68;;;;;;;23.90;65.26;99518.31;4445118;32;34541;-83
2022/07/01 01:04:03;;;;;;;16.27;7.78;;;;;;;23.84;65.49;99528.09;4459025;32;33782;-84
2022/07/01 01:06:30;;;;;;;11.02;7.20;;;;;;;23.79;65.74;99522.00;4461858;32;34604;-83
2022/07/01 01:08:58;;;;;;;12.37;7.60;;;;;;;24.28;63.70;99523.91;4463496;32;33517;-83
2022/07/01 01:11:26;;;;;;;13.15;7.18;;;;;;;24.34;63.40;99526.47;4464459;32;33837;-84
2022/07/01 01:13:53;;;;;;;12.52;6.78;;;;;;;24.35;63.41;99525.56;4446541;32;34799;-84
2022/07/01 01:16:22;;;;;;;15.10;6.87;;;;;;;24.96;61.58;99533.41;4460500;32;34290;-85
2022/07/01 01:18:50;;;;;;;9.98;7.10;;;;;;;24.67;62.00;99533.03;4465798;32;33472;-83
2022/07/01 01:21:18;;;;;;;24.65;7.72;;;;;;;23.70;65.59;99537.06;4466372;32;34576;-83
2022/07/01 01:23:46;;;;;;;10.73;6.93;;;;;;;23.94;65.12;99529.72;4459925;32;32840;-82
2022/07/01 01:26:15;;;;;;;11.00;6.57;;;;;;;23.99;64.86;99527.00;4462636;32;33373;-84
2022/07/01 01:28:43;;;;;;;11.88;7.40;;;;;;;23.80;65.32;99526.38;4445935;32;33251;-83
2022/07/01 01:31:11;;;;;;;11.45;7.72;;;;;;;23.40;66.93;99526.88;4457747;32;34456;-82
2022/07/01 01:33:38;;;;;;;12.05;8.07;;;;;;;22.98;68.60;99529.91;4462690;32;33529;-84
2022/07/01 01:36:09;;;;;;;12.95;7.65;;;;;;;22.86;69.32;99530.91;4445120;32;34551;-83
2022/07/01 01:38:37;;;;;;;13.45;7.72;;;;;;;22.87;69.67;99537.97;4443294;32;33059;-85
2022/07/01 01:41:04;;;;;;;13.25;7.43;;;;;;;23.02;69.25;99536.91;4462988;32;33948;-82
2022/07/01 01:43:35;;;;;;;11.75;7.35;;;;;;;23.10;69.01;99535.13;4441345;32;33340;-83
2022/07/01 01:46:03;;;;;;;10.73;8.07;;;;;;;23.20;68.43;99525.34;4461837;32;34516;-84
2022/07/01 01:48:31;;;;;;;10.82;7.22;;;;;;;23.10;68.99;99534.22;4460608;32;33345;-84
2022/07/01 01:50:58;;;;;;;10.85;7.15;;;;;;;22.92;69.54;99525.56;4443735;32;32096;-82
2022/07/01 01:53:27;;;;;;;11.52;7.30;;;;;;;22.92;69.62;99525.56;4457798;32;33980;-83
2022/07/01 01:55:54;;;;;;;13.90;7.40;;;;;;;22.89;69.78;99533.53;4466108;32;34595;-82
2022/07/01 01:58:22;;;;;;;12.60;7.22;;;;;;;22.99;69.43;99531.69;4449639;32;33390;-83
2022/07/01 02:00:51;;;;;;;13.07;7.45;;;;;;;23.05;69.10;99530.78;4458752;32;33774;-82
2022/07/01 02:03:19;;;;;;;12.37;7.93;;;;;;;22.90;69.60;99516.78;4464249;32;34042;-81
2022/07/01 02:05:47;;;;;;;12.77;7.60;;;;;;;22.78;70.17;99517.78;4440948;32;32161;-83
2022/07/01 02:08:14;;;;;;;11.50;7.28;;;;;;;22.71;70.63;99517.84;4446402;32;33471;-85
2022/07/01 02:10:42;;;;;;;13.80;7.95;;;;;;;22.92;69.61;99520.28;4461152;32;32363;-84
2022/07/01 02:13:10;;;;;;;15.43;7.65;;;;;;;22.87;69.82;99516.84;4463162;32;33816;-82
2022/07/01 02:15:39;;;;;;;11.77;7.78;;;;;;;22.86;69.87;99520.34;4457280;32;33730;-83
2022/07/01 02:18:07;;;;;;;13.73;7.70;;;;;;;22.80;70.29;99515.13;4462999;32;33444;-82
2022/07/01 02:20:34;;;;;;;12.55;8.00;;;;;;;22.76;70.53;99519.56;4461971;32;33889;-82
2022/07/01 02:23:01;;;;;;;19.73;8.30;;;;;;;22.80;70.26;99517.78;4445198;32;33837;-82
2022/07/01 02:25:29;;;;;;;13.15;7.80;;;;;;;23.14;68.97;99515.69;4463078;32;33941;-81
2022/07/01 02:27:58;;;;;;;13.70;7.95;;;;;;;22.78;70.17;99528.34;4460870;32;34066;-81
2022/07/01 02:30:26;;;;;;;10.80;7.62;;;;;;;22.65;70.82;99520.56;4449665;32;33949;-83
2022/07/01 02:32:54;;;;;;;12.88;7.70;;;;;;;22.67;70.79;99529.34;4445765;32;33492;-83
2022/07/01 02:35:22;;;;;;;12.02;8.23;;;;;;;22.71;71.07;99528.41;4457722;32;33936;-83
2022/07/01 02:37:50;;;;;;;12.88;7.78;;;;;;;22.75;70.87;99530.13;4458061;32;34083;-81
2022/07/01 02:40:17;;;;;;;12.43;7.90;;;;;;;22.67;71.22;99524.94;4438747;32;33953;-84
2022/07/01 02:42:46;;;;;;;13.98;8.07;;;;;;;22.78;70.95;99535.41;4461104;32;35089;-82
2022/07/01 02:45:15;;;;;;;12.45;7.90;;;;;;;22.72;70.96;99538.09;4461228;32;33621;-81
2022/07/01 02:47:44;;;;;;;15.02;7.97;;;;;;;22.71;70.99;99537.19;4442956;32;33747;-84
2022/07/01 02:50:13;;;;;;;11.80;8.00;;;;;;;22.80;70.55;99536.25;4454398;32;34252;-84
2022/07/01 02:52:48;;;;;;;12.02;7.22;;;;;;;22.74;70.56;99536.31;4440759;32;33547;-81
2022/07/01 02:55:15;;;;;;;12.52;8.40;;;;;;;22.84;70.34;99537.97;4458657;32;32708;-82
2022/07/01 02:57:43;;;;;;;12.35;7.97;;;;;;;22.55;71.57;99547.03;4456572;32;33236;-82
2022/07/01 03:00:13;;;;;;;11.55;7.90;;;;;;;22.44;71.93;99543.59;4460591;32;34475;-82
2022/07/01 03:02:41;;;;;;;13.62;8.23;;;;;;;22.36;71.92;99550.69;4465906;32;33883;-83
2022/07/01 03:05:10;;;;;;;13.70;7.72;;;;;;;22.37;72.26;99550.69;4447000;32;33928;-82
2022/07/01 03:07:39;;;;;;;13.05;7.60;;;;;;;22.50;71.84;99542.66;4462212;32;33276;-84
2022/07/01 03:10:07;;;;;;;13.60;8.32;;;;;;;22.49;72.23;99549.72;4438082;32;33470;-85
2022/07/01 03:12:35;;;;;;;12.23;8.15;;;;;;;22.65;71.62;99546.97;4457832;32;34529;-82
2022/07/01 03:15:11;;;;;;;12.25;8.10;;;;;;;22.86;70.89;99546.75;4458291;32;34549;-84
2022/07/01 03:17:40;;;;;;;15.10;8.25;;;;;;;22.75;71.35;99545.97;4466759;32;34110;-83
2022/07/01 03:20:10;;;;;;;12.27;7.50;;;;;;;22.77;71.32;99554.75;4448799;32;33808;-82
2022/07/01 03:22:38;;;;;;;10.98;6.93;;;;;;;23.10;69.99;99555.38;4441757;32;32459;-84
2022/07/01 03:25:06;;;;;;;11.50;7.50;;;;;;;23.38;68.86;99565.66;4457836;32;33748;-82
2022/07/01 03:27:34;;;;;;;13.95;7.50;;;;;;;23.68;67.59;99565.31;4464521;32;33443;-82
2022/07/01 03:30:04;;;;;;;10.63;8.05;;;;;;;24.67;64.03;99578.03;4444895;32;33682;-83
2022/07/01 03:32:32;;;;;;;11.68;7.57;;;;;;;24.41;64.31;99578.41;4455911;32;34105;-83
2022/07/01 03:35:00;;;;;;;12.73;7.72;;;;;;;24.41;64.55;99583.72;4456839;32;34330;-83
2022/07/01 03:37:27;;;;;;;13.45;8.00;;;;;;;23.79;66.92;99585.47;4443861;32;32919;-83
2022/07/01 03:39:55;;;;;;;11.48;7.50;;;;;;;23.51;68.09;99586.66;4436479;32;32346;-82
2022/07/01 03:42:23;;;;;;;12.57;7.97;;;;;;;24.13;65.78;99589.41;4436035;32;33481;-82
2022/07/01 03:44:51;;;;;;;10.05;7.57;;;;;;;24.42;64.81;99590.78;4441287;32;33724;-83
2022/07/01 03:47:18;;;;;;;11.07;8.25;;;;;;;23.88;66.71;99593.28;4427817;32;33255;-82
2022/07/01 03:49:46;;;;;;;12.18;8.10;;;;;;;23.26;69.20;99607.19;4457468;32;33472;-83
2022/07/01 03:52:14;;;;;;;14.20;7.75;;;;;;;23.34;69.31;99607.97;4456319;32;33505;-82
2022/07/01 03:54:41;;;;;;;15.27;8.18;;;;;;;23.04;71.02;99613.53;4461713;32;34552;-83
2022/07/01 03:57:09;;;;;;;14.27;8.15;;;;;;;23.28;70.06;99613.31;4450964;32;32282;-84
2022/07/01 03:59:39;;;;;;;16.65;8.43;;;;;;;23.22;70.19;99618.69;4442141;32;33720;-84
2022/07/01 04:02:07;;;;;;;13.93;7.53;;;;;;;23.34;69.52;99607.97;4463784;32;34518;-83
2022/07/01 04:04:35;;;;;;;13.35;7.40;;;;;;;23.49;69.20;99612.22;4459948;32;33594;-82
2022/07/01 04:07:05;;;;;;;13.90;8.00;;;;;;;23.75;67.94;99608.41;4445967;32;33064;-84
2022/07/01 04:09:33;;;;;;;16.85;8.68;;;;;;;23.80;67.98;99616.28;4438769;32;33204;-83
2022/07/01 04:12:02;;;;;;;10.77;7.68;;;;;;;23.90;67.55;99612.66;4448290;32;33650;-84
2022/07/01 04:14:30;;;;;;;12.00;8.20;;;;;;;23.72;68.16;99614.59;4461948;32;33842;-83
2022/07/01 04:16:57;;;;;;;10.15;7.47;;;;;;;23.69;68.34;99604.06;4464185;32;34004;-82
2022/07/01 04:19:25;;;;;;;12.63;7.70;;;;;;;23.96;67.31;99617.88;4447616;32;33826;-84
2022/07/01 04:24:39;;;;;;;14.15;7.50;;;;;;;24.31;66.30;99612.09;4440570;32;34494;-85
2022/07/01 04:27:07;;;;;;;13.75;7.70;;;;;;;24.99;63.85;99612.84;4444604;32;33448;-86
2022/07/01 04:29:35;;;;;;;11.25;7.90;;;;;;;24.78;64.04;99609.63;4439474;32;33040;-85
2022/07/01 04:32:02;;;;;;;11.00;7.60;;;;;;;24.47;65.65;99604.81;4444957;32;34660;-85
2022/07/01 04:34:30;;;;;;;11.45;8.23;;;;;;;24.58;65.68;99606.44;4444311;32;33617;-85
2022/07/01 04:36:58;;;;;;;12.10;7.75;;;;;;;24.74;65.05;99607.94;4443829;32;33572;-85
2022/07/01 04:39:25;;;;;;;11.18;7.37;;;;;;;24.86;64.77;99602.47;4439426;32;33117;-86
2022/07/01 04:42:02;;;;;;;12.00;7.55;;;;;;;25.47;62.63;99600.50;4442635;32;32391;-86
2022/07/01 04:44:34;;;;;;;12.05;7.28;;;;;;;25.47;62.82;99594.31;4440188;32;34330;-85
2022/07/01 04:47:09;;;;;;;11.88;7.20;;;;;;;26.15;61.06;99600.91;4440440;32;33162;-85
2022/07/01 04:49:37;;;;;;;14.77;7.62;;;;;;;26.36;60.15;99596.91;4440507;32;33084;-81
2022/07/01 04:52:05;;;;;;;13.82;7.22;;;;;;;26.29;60.87;99598.84;4448430;32;33916;-81
2022/07/01 04:54:32;;;;;;;10.85;7.55;;;;;;;26.40;60.55;99598.56;4442148;32;33702;-81
2022/07/01 04:57:00;;;;;;;12.73;7.53;;;;;;;26.29;60.72;99593.53;4440689;32;33385;-80
2022/07/01 04:59:28;;;;;;;13.80;7.30;;;;;;;26.12;62.06;99601.00;4439421;32;33886;-81
2022/07/01 05:01:55;;;;;;;11.48;7.50;;;;;;;26.02;62.99;99595.88;4446501;32;33424;-81
2022/07/01 05:04:23;;;;;;;13.50;8.20;;;;;;;26.32;61.81;99590.78;4441430;32;34448;-81
2022/07/01 05:06:51;;;;;;;13.13;7.50;;;;;;;25.90;63.20;99599.66;4442084;32;33220;-85
2022/07/01 05:09:18;;;;;;;9.70;7.47;;;;;;;26.69;60.71;99597.91;4444120;32;33197;-82
2022/07/01 05:11:51;;;;;;;13.55;7.70;;;;;;;27.21;58.37;99604.53;4441835;32;33552;-82
2022/07/01 05:14:18;;;;;;;15.77;8.93;;;;;;;26.85;59.44;99601.94;4446943;32;34678;-79
2022/07/01 05:16:46;;;;;;;11.80;7.45;;;;;;;27.31;58.29;99604.34;4443761;32;33300;-79
2022/07/01 05:22:00;;;;;;;11.10;7.90;;;;;;;26.19;62.38;99616.75;4454758;32;33915;-78
2022/07/01 05:24:32;;;;;;;10.68;7.82;;;;;;;27.12;59.08;99612.78;4462201;32;33894;-82
2022/07/01 05:27:00;;;;;;;13.60;7.93;;;;;;;27.47;58.27;99618.97;4462126;32;33436;-80
2022/07/01 05:29:28;;;;;;;20.25;8.57;;;;;;;27.91;57.39;99616.88;4455964;32;34707;-79
2022/07/01 05:31:56;;;;;;;12.93;7.30;;;;;;;28.02;57.32;99613.88;4454586;32;33517;-79
2022/07/01 05:34:23;;;;;;;14.85;7.85;;;;;;;28.38;56.71;99611.91;4458009;32;34026;-81
2022/07/01 05:36:51;;;;;;;13.25;7.30;;;;;;;28.68;55.74;99617.19;4457340;32;33607;-79
2022/07/01 05:39:19;;;;;;;27.27;19.40;;;;;;;28.86;54.93;99612.16;4457625;32;34659;-79
2022/07/01 05:41:46;;;;;;;21.30;13.95;;;;;;;28.96;54.55;99613.63;4445247;32;33744;-82
2022/07/01 05:44:14;;;;;;;20.05;13.32;;;;;;;28.95;54.14;99618.06;4444208;32;33125;-82
2022/07/01 05:46:41;;;;;;;18.80;11.80;;;;;;;29.16;53.75;99620.97;4461937;32;33715;-82
2022/07/01 05:49:09;;;;;;;14.50;10.82;;;;;;;29.22;53.83;99620.75;4464986;32;33091;-82
2022/07/01 05:51:42;;;;;;;19.67;12.63;;;;;;;29.44;53.89;99630.66;4455871;32;34480;-82
2022/07/01 05:54:09;;;;;;;12.93;8.95;;;;;;;29.35;54.43;99624.72;4468010;32;33838;-82
2022/07/01 05:56:37;;;;;;;24.80;14.00;;;;;;;29.19;55.01;99631.53;4446914;32;33402;-82
2022/07/01 05:59:05;;;;;;;18.12;10.75;;;;;;;29.54;54.28;99635.63;4462708;32;33992;-83
2022/07/01 06:01:32;;;;;;;19.52;11.32;;;;;;;29.34;54.86;99632.78;4460836;32;33827;-82
2022/07/01 06:04:01;;;;;;;13.23;9.95;;;;;;;29.43;54.70;99629.78;4457578;32;33610;-82
2022/07/01 06:06:28;;;;;;;15.85;10.10;;;;;;;29.71;53.89;99635.03;4465763;32;33180;-81
2022/07/01 06:08:56;;;;;;;18.15;10.95;;;;;;;29.85;53.65;99639.00;4465087;32;33849;-81
2022/07/01 06:11:24;;;;;;;38.38;25.85;;;;;;;29.28;53.84;99646.34;4465129;32;32748;-78
2022/07/01 06:13:51;;;;;;;14.10;8.88;;;;;;;29.27;54.74;99649.94;4459341;32;34559;-82
2022/07/01 06:16:18;;;;;;;20.37;11.85;;;;;;;29.51;53.99;99649.06;4458185;32;33249;-81
2022/07/01 06:18:46;;;;;;;14.82;8.75;;;;;;;29.49;53.62;99645.56;4463652;32;33965;-81
2022/07/01 06:21:15;;;;;;;45.38;31.73;;;;;;;29.59;53.15;99647.00;4461738;32;33962;-81
2022/07/01 06:23:43;;;;;;;17.87;9.55;;;;;;;30.36;52.14;99654.84;4464107;32;33886;-83
2022/07/01 06:26:11;;;;;;;24.55;16.05;;;;;;;30.08;52.98;99657.72;4463714;32;32970;-82
2022/07/01 06:28:38;;;;;;;16.73;9.32;;;;;;;29.83;53.40;99663.09;4461302;32;32579;-82
2022/07/01 06:31:05;;;;;;;18.40;11.93;;;;;;;30.34;51.71;99656.72;4447814;32;33395;-81
2022/07/01 06:33:36;;;;;;;22.08;13.65;;;;;;;29.75;53.18;99657.16;4458238;32;32567;-82
2022/07/01 06:36:03;;;;;;;28.20;16.70;;;;;;;29.66;53.75;99658.31;4457722;32;34230;-82
2022/07/01 06:38:31;;;;;;;33.28;21.37;;;;;;;29.63;53.30;99657.56;4467211;32;33624;-80
2022/07/01 06:43:45;;;;;;;16.87;11.75;;;;;;;29.85;52.02;99655.91;4467549;32;33664;-82
2022/07/01 06:46:12;;;;;;;20.15;11.38;;;;;;;30.01;51.78;99658.00;4469046;32;34344;-82
2022/07/01 06:48:40;;;;;;;15.25;8.65;;;;;;;30.85;50.00;99645.81;4448918;32;32458;-82
2022/07/01 06:51:08;;;;;;;15.15;9.05;;;;;;;30.33;51.24;99652.31;4459740;32;33957;-82
2022/07/01 06:53:35;;;;;;;14.93;10.27;;;;;;;30.52;50.47;99655.16;4465048;32;33833;-82
2022/07/01 06:56:03;;;;;;;18.52;10.02;;;;;;;31.04;49.54;99654.88;4428317;32;33442;-82
2022/07/01 06:58:31;;;;;;;19.60;11.45;;;;;;;30.06;51.63;99669.38;4458704;32;33521;-82
2022/07/01 07:00:58;;;;;;;17.25;8.77;;;;;;;30.14;52.03;99659.28;4456409;32;33995;-82
2022/07/01 07:03:26;;;;;;;16.65;8.73;;;;;;;31.01;50.39;99652.31;4459159;32;34042;-82
2022/07/01 07:05:54;;;;;;;16.65;8.30;;;;;;;30.98;48.72;99651.56;4466053;32;33454;-82
2022/07/01 07:08:21;;;;;;;12.73;7.93;;;;;;;31.05;48.62;99647.69;4466723;32;33704;-83
2022/07/01 07:10:49;;;;;;;13.88;8.25;;;;;;;31.03;48.98;99650.44;4463877;32;33753;-82
2022/07/01 07:13:16;;;;;;;16.87;8.38;;;;;;;31.19;49.25;99644.44;4463367;32;33724;-82
2022/07/01 07:15:44;;;;;;;22.30;12.73;;;;;;;31.15;47.92;99644.56;4468602;32;33299;-82
2022/07/01 07:18:12;;;;;;;18.30;11.00;;;;;;;30.99;48.46;99648.81;4444743;32;34742;-82
2022/07/01 07:20:40;;;;;;;20.88;13.20;;;;;;;30.91;46.89;99641.13;4467021;32;33873;-83
2022/07/01 07:23:08;;;;;;;15.13;6.75;;;;;;;31.09;47.67;99633.25;4447392;32;33533;-82
2022/07/01 07:25:35;;;;;;;17.62;8.07;;;;;;;31.32;46.75;99638.47;4461750;32;32943;-82
2022/07/01 07:28:03;;;;;;;21.15;10.85;;;;;;;31.93;46.00;99639.38;4449606;32;33373;-82
2022/07/01 07:30:31;;;;;;;15.75;7.85;;;;;;;31.89;44.96;99633.31;4448933;32;32635;-82
2022/07/01 07:32:58;;;;;;;17.00;9.85;;;;;;;31.60;44.04;99644.47;4463115;32;33792;-82
2022/07/01 07:35:28;;;;;;;16.83;10.02;;;;;;;31.76;44.29;99634.81;4464303;32;33476;-82
2022/07/01 07:37:56;;;;;;;26.10;12.48;;;;;;;32.03;43.68;99637.19;4468662;32;33840;-82
2022/07/01 07:40:24;;;;;;;15.32;7.05;;;;;;;32.25;43.23;99637.91;4447236;32;34351;-81
2022/07/01 07:42:51;;;;;;;12.48;7.47;;;;;;;32.17;43.26;99628.50;4466670;32;33766;-82
2022/07/01 07:45:19;;;;;;;13.93;8.27;;;;;;;32.10;42.95;99639.53;4465974;32;33921;-82
2022/07/01 07:47:48;;;;;;;17.48;8.60;;;;;;;32.10;42.46;99633.28;4466799;32;33838;-82
2022/07/01 07:50:16;;;;;;;17.25;7.20;;;;;;;32.35;42.80;99638.34;4466031;32;33929;-83
2022/07/01 07:52:43;;;;;;;20.00;9.73;;;;;;;32.23;41.99;99638.94;4461486;32;34082;-82
2022/07/01 07:55:11;;;;;;;19.62;10.57;;;;;;;32.37;41.18;99640.97;4462668;32;33257;-82
2022/07/01 07:57:40;;;;;;;18.10;10.30;;;;;;;32.62;41.87;99636.16;4466233;32;34586;-82
2022/07/01 08:00:10;;;;;;;13.98;8.30;;;;;;;32.87;40.42;99640.31;4466832;32;33960;-82
2022/07/01 08:02:38;;;;;;;17.10;6.43;;;;;;;32.75;40.03;99641.81;4451122;32;33847;-82
2022/07/01 08:05:08;;;;;;;14.93;7.45;;;;;;;33.15;40.31;99634.47;4461712;32;33365;-82
2022/07/01 08:07:37;;;;;;;19.67;9.48;;;;;;;33.35;39.58;99641.50;4465150;32;34757;-82
2022/07/01 08:10:08;;;;;;;13.70;6.60;;;;;;;34.07;38.80;99644.84;4463154;32;33940;-83
2022/07/01 08:12:36;;;;;;;15.05;9.70;;;;;;;33.67;38.92;99641.66;4458498;32;33579;-84
2022/07/01 08:15:05;;;;;;;14.93;8.27;;;;;;;33.84;37.96;99648.78;4464420;32;34199;-83
2022/07/01 08:17:32;;;;;;;10.45;5.45;;;;;;;33.73;38.14;99656.53;4447506;32;33857;-83
2022/07/01 08:20:00;;;;;;;17.58;6.50;;;;;;;33.67;38.73;99649.72;4462174;32;33543;-82
2022/07/01 08:22:28;;;;;;;17.85;9.52;;;;;;;34.18;37.30;99653.22;4461445;32;33771;-84
2022/07/01 08:24:55;;;;;;;11.90;6.68;;;;;;;34.38;37.23;99654.78;4462171;32;33212;-81
2022/07/01 08:27:23;;;;;;;16.92;7.32;;;;;;;34.33;37.14;99646.12;4463517;32;33923;-82
2022/07/01 08:29:50;;;;;;;12.93;5.65;;;;;;;34.61;37.12;99647.25;4460179;32;32845;-82
2022/07/01 08:32:19;;;;;;;15.65;8.20;;;;;;;33.89;36.33;99647.59;4451857;32;33377;-80
2022/07/01 08:34:46;;;;;;;17.73;6.43;;;;;;;34.16;35.87;99652.44;4464039;32;33171;-82
2022/07/01 08:37:14;;;;;;;10.10;5.20;;;;;;;34.39;36.54;99643.09;4458953;32;33947;-79
2022/07/01 08:39:44;;;;;;;20.98;10.25;;;;;;;34.42;35.40;99650.09;4444123;32;32583;-81
2022/07/01 08:42:11;;;;;;;7.55;4.50;;;;;;;34.73;35.16;99653.78;4457649;32;34035;-82
2022/07/01 08:44:39;;;;;;;13.85;6.70;;;;;;;34.40;34.73;99646.62;4448273;32;33504;-81
2022/07/01 08:47:12;;;;;;;14.25;6.95;;;;;;;34.37;35.41;99641.44;4458227;32;33811;-80
2022/07/01 08:49:40;;;;;;;10.65;3.97;;;;;;;34.60;35.58;99649.06;4460557;32;33732;-81
2022/07/01 08:52:09;;;;;;;13.02;5.53;;;;;;;34.94;34.55;99641.75;4463822;32;34488;-81
2022/07/01 08:54:38;;;;;;;14.65;5.95;;;;;;;35.01;33.67;99644.97;4442013;32;33495;-83
2022/07/01 08:57:07;;;;;;;14.05;6.40;;;;;;;34.70;34.55;99638.69;4459049;32;34563;-80
2022/07/01 08:59:35;;;;;;;11.55;5.12;;;;;;;35.04;34.54;99637.59;4457667;32;33804;-78
2022/07/01 09:02:04;;;;;;;11.18;5.43;;;;;;;34.94;33.99;99636.38;4457710;32;33387;-80
2022/07/01 09:04:33;;;;;;;11.18;3.90;;;;;;;34.83;33.09;99644.22;4455199;32;32921;-82
2022/07/01 09:07:04;;;;;;;13.90;6.93;;;;;;;34.73;33.51;99637.63;4455697;32;33825;-84
2022/07/01 09:09:37;;;;;;;11.02;6.35;;;;;;;35.43;32.42;99633.47;4446990;32;33355;-80
2022/07/01 09:12:05;;;;;;;11.38;4.70;;;;;;;35.39;32.19;99629.25;4442936;32;32870;-79
2022/07/01 09:14:34;;;;;;;8.82;4.20;;;;;;;35.01;32.50;99626.13;4460661;32;33888;-82
2022/07/01 09:17:04;;;;;;;9.40;3.53;;;;;;;34.93;31.90;99618.50;4444054;32;33643;-83
2022/07/01 09:19:36;;;;;;;11.55;3.95;;;;;;;35.26;31.01;99620.16;4446994;32;33307;-81
2022/07/01 09:22:10;;;;;;;13.25;5.07;;;;;;;35.63;30.95;99617.91;4446374;32;34705;-80
2022/07/01 09:24:41;;;;;;;12.45;3.83;;;;;;;36.10;31.28;99619.44;4460065;32;33778;-82
2022/07/01 09:27:16;;;;;;;11.55;6.07;;;;;;;35.66;31.57;99620.44;4443371;32;33468;-86
2022/07/01 09:29:51;;;;;;;13.73;5.47;;;;;;;35.81;31.30;99619.50;4451081;32;34140;-82
2022/07/01 09:32:21;;;;;;;12.68;5.15;;;;;;;35.55;31.11;99625.59;4445864;32;33893;-81
2022/07/01 09:34:52;;;;;;;10.35;3.85;;;;;;;35.77;30.35;99617.06;4461081;32;33594;-82
2022/07/01 09:37:25;;;;;;;8.93;3.40;;;;;;;36.27;30.24;99614.84;4457880;32;34461;-83
2022/07/01 09:39:57;;;;;;;16.73;7.62;;;;;;;37.05;28.28;99614.19;4461284;32;33816;-80
2022/07/01 09:42:26;;;;;;;16.52;6.70;;;;;;;36.83;29.25;99621.03;4456824;32;34472;-81
2022/07/01 09:44:57;;;;;;;18.05;6.57;;;;;;;36.41;29.82;99621.06;4445849;32;33466;-80
2022/07/01 09:47:31;;;;;;;14.35;5.72;;;;;;;36.58;30.17;99622.63;4445842;32;33196;-79
2022/07/01 09:50:00;;;;;;;12.70;4.78;;;;;;;37.01;30.17;99618.91;4460759;32;34035;-80
2022/07/01 09:52:28;;;;;;;12.98;6.03;;;;;;;37.33;28.99;99611.34;4458434;32;34306;-83
2022/07/01 09:55:05;;;;;;;12.27;6.05;;;;;;;38.12;29.01;99611.25;4460592;32;33299;-82
2022/07/01 09:57:33;;;;;;;10.32;5.12;;;;;;;37.81;28.62;99607.16;4460424;32;34700;-84
2022/07/01 10:00:00;;;;;;;18.05;5.65;;;;;;;36.33;29.62;99603.66;4455571;32;33769;-83
2022/07/01 10:02:33;;;;;;;12.05;5.10;;;;;;;36.53;29.51;99608.62;4459585;32;34524;-85
2022/07/01 10:05:08;;;;;;;15.20;6.43;;;;;;;36.68;29.86;99611.28;4460577;32;33198;-87
2022/07/01 10:07:48;;;;;;;10.15;5.80;;;;;;;36.28;30.08;99613.84;4446145;32;34632;-81
2022/07/01 10:10:42;;;;;;;12.75;6.03;;;;;;;36.91;28.91;99607.88;4457699;32;33702;-85
2022/07/01 10:13:12;;;;;;;16.50;9.40;;;;;;;37.34;27.93;99605.00;4445062;32;34449;-85
2022/07/01 10:15:41;;;;;;;12.80;6.68;;;;;;;37.55;28.27;99607.13;4432769;32;32839;-84
2022/07/01 10:18:25;;;;;;;12.10;4.12;;;;;;;37.83;27.77;99597.09;4446071;32;33870;-84
2022/07/01 10:20:54;;;;;;;18.55;7.50;;;;;;;38.67;27.25;99584.66;4463073;32;33960;-83
2022/07/01 10:23:24;;;;;;;14.73;5.00;;;;;;;37.53;27.49;99592.88;4455166;32;33432;-86
2022/07/01 10:25:53;;;;;;;9.90;3.70;;;;;;;36.43;28.93;99591.28;4456252;32;32495;-85
2022/07/01 10:28:28;;;;;;;9.70;4.43;;;;;;;36.17;28.61;99593.84;4435589;32;33892;-83
2022/07/01 10:31:09;;;;;;;12.80;5.15;;;;;;;36.32;27.80;99593.84;4457699;32;33609;-84
2022/07/01 10:33:52;;;;;;;10.98;4.95;;;;;;;36.33;28.06;99598.25;4462286;32;34149;-83
2022/07/01 10:36:31;;;;;;;12.77;5.55;;;;;;;35.69;28.68;99590.59;4443755;32;33242;-85
2022/07/01 10:39:09;;;;;;;23.08;6.82;;;;;;;35.74;28.15;99585.81;4453918;32;33673;-85
2022/07/01 10:41:56;;;;;;;13.85;6.15;;;;;;;35.52;28.97;99588.06;4463807;32;33953;-82
2022/07/01 10:45:19;;;;;;;18.20;11.40;;;;;;;36.44;28.38;99582.25;4458269;32;34744;-83
2022/07/01 10:47:47;;;;;;;8.63;3.90;;;;;;;37.44;27.04;99582.75;4458025;32;33580;-82
2022/07/01 10:50:18;;;;;;;11.05;5.43;;;;;;;36.85;27.86;99577.75;4466469;32;33646;-80
2022/07/01 10:53:01;;;;;;;14.02;6.07;;;;;;;36.54;27.85;99580.66;4456950;32;35160;-89
2022/07/01 10:55:40;;;;;;;8.77;3.85;;;;;;;36.93;27.36;99580.78;4453774;32;33940;-87
2022/07/01 10:58:11;;;;;;;13.88;8.13;;;;;;;37.42;26.61;99581.94;4459514;32;34479;-88
2022/07/01 11:00:43;;;;;;;14.35;6.07;;;;;;;37.35;27.00;99573.44;4454880;32;35252;-87
2022/07/01 11:03:17;;;;;;;16.17;8.80;;;;;;;36.81;27.99;99579.78;4446494;32;34508;-88
2022/07/01 11:05:47;;;;;;;11.85;5.45;;;;;;;36.59;28.82;99592.00;4442637;32;33924;-88
2022/07/01 11:08:15;;;;;;;14.10;7.70;;;;;;;36.42;29.09;99586.88;4466465;32;33388;-87
2022/07/01 11:10:54;;;;;;;13.70;5.95;;;;;;;36.21;29.09;99584.59;4445417;32;34369;-87
2022/07/01 11:13:22;;;;;;;12.07;4.85;;;;;;;36.41;29.19;99577.03;4445545;32;33833;-86
2022/07/01 11:15:49;;;;;;;17.02;5.10;;;;;;;36.39;29.33;99578.97;4450689;32;32961;-85
2022/07/01 11:18:18;;;;;;;10.77;3.78;;;;;;;36.69;28.94;99576.09;4440857;32;33440;-85
2022/07/01 11:20:46;;;;;;;12.37;4.12;;;;;;;36.34;28.61;99575.72;4464124;32;34555;-84
2022/07/01 11:23:16;;;;;;;11.80;3.47;;;;;;;36.62;27.91;99569.34;4455915;32;34827;-84
2022/07/01 11:25:43;;;;;;;9.18;3.50;;;;;;;37.31;27.92;99572.78;4446555;32;33627;-82
2022/07/01 11:28:12;;;;;;;8.30;3.33;;;;;;;37.42;27.76;99568.44;4459866;32;33430;-84
2022/07/01 11:30:40;;;;;;;22.52;4.35;;;;;;;37.76;27.00;99554.31;4465228;32;33741;-84
2022/07/01 11:33:08;;;;;;;17.62;4.32;;;;;;;38.49;26.87;99551.69;4461738;32;34427;-85
2022/07/01 11:41:24;;;;;;;11.05;3.70;;;;;;;36.92;26.69;99544.84;4455192;32;33764;-84
2022/07/01 11:43:52;;;;;;;10.50;3.12;;;;;;;37.46;26.27;99540.25;4459791;32;32435;-83
2022/07/01 11:46:21;;;;;;;10.38;3.70;;;;;;;37.72;25.95;99539.25;4465403;32;33544;-85
2022/07/01 11:48:51;;;;;;;6.82;3.47;;;;;;;37.36;25.31;99538.22;4434364;32;33392;-88